Time;durP1;ratioP1;P1;durP2;ratioP2;P2;SDS_P1;SDS_P2;PMS_P1;PMS_P2;Temp;Humidity;BMP_temperature;BMP_pressure;BME280_temperature;BME280_humidity;BME280_pressure;Samples;Min_cycle;Max_cycle;Signal;HPM_P1;HPM_P2
2021/08/02 00:01:58;;;;;;;3.47;1.52;;;;;;;9.25;88.71;90639.44;5035451;28;20395;-87
2021/08/02 00:04:30;;;;;;;2.65;1.80;;;;;;;9.32;88.57;90639.66;5019335;28;20535;-88
2021/08/02 00:07:12;;;;;;;3.78;1.73;;;;;;;9.25;88.70;90638.69;5019985;28;20108;-87
2021/08/02 00:09:41;;;;;;;3.58;1.80;;;;;;;9.22;89.25;90639.34;5036547;28;20029;-87
2021/08/02 00:12:18;;;;;;;4.10;2.00;;;;;;;9.18;89.47;90633.28;5003102;28;20021;-87
2021/08/02 00:14:58;;;;;;;3.47;1.50;;;;;;;9.14;89.77;90640.22;5018143;28;20116;-87
2021/08/02 00:17:28;;;;;;;6.13;2.08;;;;;;;9.19;89.32;90632.97;5035624;28;20406;-87
2021/08/02 00:20:06;;;;;;;2.85;1.80;;;;;;;9.22;88.89;90634.91;5002604;28;20091;-87
2021/08/02 00:22:42;;;;;;;3.63;1.83;;;;;;;9.30;89.05;90630.69;5019636;28;20112;-87
2021/08/02 00:25:19;;;;;;;3.38;1.83;;;;;;;9.27;89.26;90631.34;5019925;28;20115;-87
2021/08/02 00:27:50;;;;;;;3.10;1.70;;;;;;;9.18;89.67;90622.88;5020106;28;20025;-87
2021/08/02 00:30:26;;;;;;;3.28;1.95;;;;;;;9.21;89.37;90628.19;5019211;28;20024;-87
2021/08/02 00:32:58;;;;;;;4.40;1.73;;;;;;;9.24;89.47;90627.53;5035410;28;20029;-87
2021/08/02 00:35:38;;;;;;;2.88;1.60;;;;;;;9.24;89.38;90631.97;5035856;28;20025;-87
2021/08/02 00:38:18;;;;;;;2.38;1.60;;;;;;;9.26;89.45;90629.81;5020154;28;20445;-87
2021/08/02 00:40:52;;;;;;;2.75;1.60;;;;;;;9.31;89.46;90621.78;5019169;28;20037;-87
2021/08/02 00:43:45;;;;;;;1.73;1.60;;;;;;;9.29;89.14;90623.94;5034878;28;20029;-87
2021/08/02 00:46:18;;;;;;;2.78;1.70;;;;;;;9.24;89.25;90619.72;5052631;28;20021;-88
2021/08/02 00:48:56;;;;;;;2.42;1.70;;;;;;;9.27;89.18;90623.53;5034925;28;20032;-88
2021/08/02 00:51:32;;;;;;;4.00;2.00;;;;;;;9.28;88.85;90627.63;5019033;28;20028;-87
2021/08/02 00:54:06;;;;;;;2.30;1.63;;;;;;;9.26;89.03;90624.63;5035033;28;20024;-87
2021/08/02 00:56:44;;;;;;;2.50;1.75;;;;;;;9.25;89.41;90618.63;5019048;28;20033;-87
2021/08/02 00:59:22;;;;;;;3.28;1.90;;;;;;;9.41;88.72;90616.16;5035179;28;20032;-87
2021/08/02 01:01:58;;;;;;;2.83;1.90;;;;;;;9.41;88.90;90623.94;5018742;28;20017;-87
2021/08/02 01:04:30;;;;;;;2.55;1.50;;;;;;;9.33;88.99;90624.84;5035145;28;20398;-87
2021/08/02 01:07:08;;;;;;;2.47;1.48;;;;;;;9.39;88.66;90625.34;5058361;23;20042;-86
2021/08/02 01:09:39;;;;;;;3.42;1.40;;;;;;;9.42;88.86;90622.84;4983647;28;20545;-84
2021/08/02 01:12:13;;;;;;;3.47;2.70;;;;;;;9.39;88.36;90623.50;4982598;28;20038;-86
2021/08/02 01:14:45;;;;;;;4.15;1.40;;;;;;;9.37;88.67;90625.69;4982310;28;20046;-84
2021/08/02 01:17:22;;;;;;;5.75;1.83;;;;;;;9.44;88.52;90627.75;4982737;28;20030;-85
2021/08/02 01:19:58;;;;;;;4.15;1.80;;;;;;;9.29;88.84;90629.16;4982622;28;20041;-85
2021/08/02 01:22:37;;;;;;;3.92;1.70;;;;;;;9.29;88.62;90629.16;4983619;28;20022;-86
2021/08/02 01:25:42;;;;;;;4.25;1.75;;;;;;;9.33;88.91;90633.41;4982182;28;20038;-86
2021/08/02 01:28:28;;;;;;;2.47;1.45;;;;;;;9.41;88.53;90629.16;4997205;28;20025;-84
2021/08/02 01:31:00;;;;;;;3.60;1.77;;;;;;;9.27;88.87;90632.09;4998389;28;20030;-86
2021/08/02 01:33:36;;;;;;;3.47;1.50;;;;;;;9.22;88.77;90621.91;4982821;28;20045;-86
2021/08/02 01:36:07;;;;;;;3.13;1.60;;;;;;;9.30;88.38;90628.84;4967322;28;20026;-86
2021/08/02 01:38:39;;;;;;;3.92;2.25;;;;;;;9.18;88.07;90628.06;5016615;28;20018;-86
2021/08/02 01:41:09;;;;;;;5.32;1.70;;;;;;;9.04;88.50;90628.41;4983624;28;20034;-85
2021/08/02 01:43:43;;;;;;;3.45;1.58;;;;;;;9.10;88.27;90632.31;4982695;28;20041;-86
2021/08/02 01:46:41;;;;;;;1.90;1.50;;;;;;;9.12;87.83;90634.56;4998711;28;20320;-86
2021/08/02 01:49:22;;;;;;;2.88;1.50;;;;;;;9.04;87.64;90629.16;4999003;28;20030;-86
2021/08/02 01:51:56;;;;;;;3.35;1.60;;;;;;;8.96;87.88;90627.44;4999557;28;20053;-85
2021/08/02 01:54:53;;;;;;;4.60;1.73;;;;;;;9.00;87.69;90632.72;4968350;28;20034;-86
2021/08/02 01:57:47;;;;;;;3.05;1.88;;;;;;;8.98;87.26;90630.47;4982500;28;20057;-86
2021/08/02 02:00:25;;;;;;;3.25;1.83;;;;;;;8.82;87.96;90625.13;4999776;28;20017;-86
2021/08/02 02:03:21;;;;;;;3.33;1.67;;;;;;;8.75;87.98;90631.94;5000109;28;20021;-86
2021/08/02 02:06:01;;;;;;;2.03;1.63;;;;;;;8.65;88.56;90630.53;4985237;28;20018;-87
2021/08/02 02:08:36;;;;;;;2.78;1.50;;;;;;;8.62;88.28;90633.75;4968552;28;20018;-85
2021/08/02 02:11:07;;;;;;;3.45;1.55;;;;;;;8.54;88.70;90622.38;4992184;28;20117;-87
2021/08/02 02:13:51;;;;;;;3.03;1.63;;;;;;;8.66;87.77;90615.69;4988652;28;20037;-86
2021/08/02 02:16:28;;;;;;;2.58;1.30;;;;;;;8.45;87.96;90621.75;5006163;28;20010;-87
2021/08/02 02:19:02;;;;;;;5.93;1.38;;;;;;;8.42;88.57;90621.63;4985930;28;20050;-86
2021/08/02 02:21:33;;;;;;;8.48;1.70;;;;;;;8.27;89.11;90609.94;4980729;28;20072;-87
2021/08/02 02:24:07;;;;;;;2.65;1.50;;;;;;;8.24;88.94;90619.16;4981194;28;20030;-86
2021/08/02 02:26:48;;;;;;;2.60;1.30;;;;;;;8.22;88.26;90621.31;4982068;28;20505;-85
2021/08/02 02:29:25;;;;;;;1.70;1.20;;;;;;;8.23;87.64;90628.00;4965209;28;20426;-84
2021/08/02 02:32:01;;;;;;;1.80;1.35;;;;;;;8.21;88.23;90635.38;4981731;28;20061;-86
2021/08/02 02:34:31;;;;;;;2.63;1.60;;;;;;;8.11;88.88;90641.72;4982053;28;20026;-85
2021/08/02 02:37:04;;;;;;;3.38;1.73;;;;;;;8.04;88.83;90641.47;4981448;28;20018;-86
2021/08/02 02:39:38;;;;;;;2.47;1.58;;;;;;;8.02;88.89;90637.66;4969536;28;20022;-85
2021/08/02 02:42:19;;;;;;;1.85;1.30;;;;;;;8.03;88.53;90649.59;4986239;28;20029;-85
2021/08/02 02:44:50;;;;;;;1.95;1.10;;;;;;;8.03;87.43;90647.75;4986708;28;20030;-86
2021/08/02 02:47:22;;;;;;;1.83;1.05;;;;;;;7.98;87.50;90653.13;4985659;28;20029;-86
2021/08/02 02:49:54;;;;;;;2.83;1.40;;;;;;;7.93;87.96;90655.91;4985573;28;20017;-86
2021/08/02 02:52:25;;;;;;;3.88;1.40;;;;;;;7.84;87.86;90647.44;5001973;28;20021;-86
2021/08/02 02:54:54;;;;;;;3.38;1.25;;;;;;;7.79;87.89;90655.41;4986398;28;20044;-86
2021/08/02 02:57:38;;;;;;;4.18;1.40;;;;;;;7.81;88.51;90653.25;4970298;28;20022;-85
2021/08/02 03:00:10;;;;;;;2.72;1.58;;;;;;;7.73;88.25;90646.28;5002341;28;20044;-85
2021/08/02 03:02:39;;;;;;;2.92;1.23;;;;;;;7.69;88.70;90643.56;4987885;28;20497;-86
2021/08/02 03:05:17;;;;;;;1.85;1.30;;;;;;;7.66;89.15;90642.34;4987354;28;20367;-86
2021/08/02 03:07:55;;;;;;;1.60;1.20;;;;;;;7.61;88.73;90642.56;5014317;28;20030;-85
2021/08/02 03:10:23;;;;;;;2.42;1.13;;;;;;;7.65;88.58;90648.63;4996188;28;20033;-85
2021/08/02 03:12:58;;;;;;;2.08;1.27;;;;;;;7.70;88.71;90652.09;4986146;28;20022;-85
2021/08/02 03:15:28;;;;;;;3.42;1.30;;;;;;;7.74;88.99;90638.22;4970120;28;20084;-85
2021/08/02 03:17:59;;;;;;;2.00;1.40;;;;;;;7.79;88.44;90647.63;4969780;28;20025;-85
2021/08/02 03:20:36;;;;;;;1.60;1.20;;;;;;;7.80;88.89;90656.91;4985592;28;20301;-84
2021/08/02 03:23:18;;;;;;;2.50;1.60;;;;;;;7.75;89.83;90657.13;4986868;28;20022;-86
2021/08/02 03:25:57;;;;;;;2.58;1.67;;;;;;;7.79;89.53;90668.38;4986648;28;20080;-85
2021/08/02 03:28:46;;;;;;;2.90;1.42;;;;;;;7.77;89.62;90658.31;4971218;28;20018;-86
2021/08/02 03:31:28;;;;;;;3.10;1.40;;;;;;;7.77;90.18;90660.13;4988168;28;20021;-86
2021/08/02 03:34:06;;;;;;;4.30;1.50;;;;;;;7.80;89.79;90668.06;4974002;28;20022;-84
2021/08/02 03:36:41;;;;;;;2.42;1.40;;;;;;;7.81;89.42;90671.41;4996668;28;20097;-84
2021/08/02 03:39:18;;;;;;;3.10;1.33;;;;;;;7.78;88.42;90677.25;4992114;28;20026;-84
2021/08/02 03:41:51;;;;;;;1.80;1.33;;;;;;;7.73;88.42;90678.16;5001582;28;20021;-84
2021/08/02 03:44:28;;;;;;;2.42;1.20;;;;;;;7.65;89.07;90673.81;4984881;28;20026;-86
2021/08/02 03:47:04;;;;;;;2.33;1.60;;;;;;;7.64;90.17;90682.69;4985677;28;20026;-85
2021/08/02 03:49:34;;;;;;;2.83;1.50;;;;;;;7.76;89.83;90687.91;4984274;28;20042;-85
2021/08/02 03:52:11;;;;;;;1.63;1.13;;;;;;;7.63;90.25;90678.53;4984389;28;20029;-84
2021/08/02 03:54:46;;;;;;;4.90;1.70;;;;;;;7.84;89.56;90686.34;4985555;28;20053;-84
2021/08/02 03:57:19;;;;;;;3.20;1.42;;;;;;;7.72;89.36;90681.09;4969000;28;20022;-85
2021/08/02 03:59:52;;;;;;;4.72;1.60;;;;;;;7.83;89.67;90687.41;5000784;28;20394;-85
2021/08/02 04:02:29;;;;;;;3.58;1.20;;;;;;;7.82;89.35;90680.72;4984788;28;20021;-84
2021/08/02 04:05:07;;;;;;;3.65;2.17;;;;;;;7.81;89.51;90689.56;5000163;28;20037;-84
2021/08/02 04:07:40;;;;;;;2.95;1.40;;;;;;;7.75;89.71;90685.66;5001605;28;20101;-85
2021/08/02 04:10:13;;;;;;;3.28;1.40;;;;;;;7.79;89.24;90686.53;4984623;28;20026;-84
2021/08/02 04:12:52;;;;;;;2.85;1.35;;;;;;;7.86;88.56;90686.78;5001057;28;20022;-84
2021/08/02 04:15:29;;;;;;;1.75;1.35;;;;;;;7.82;88.26;90691.09;4984914;28;20030;-84
2021/08/02 04:18:03;;;;;;;2.70;1.40;;;;;;;7.89;88.09;90691.34;4999790;28;20022;-84
2021/08/02 04:20:32;;;;;;;3.90;1.30;;;;;;;7.71;88.70;90695.16;4976186;28;20065;-85
2021/08/02 04:23:09;;;;;;;4.32;1.48;;;;;;;7.74;88.94;90694.50;4983343;28;20133;-83
2021/08/02 04:25:41;;;;;;;4.40;1.33;;;;;;;7.75;89.12;90699.38;4983577;28;20385;-84
2021/08/02 04:28:20;;;;;;;2.97;1.65;;;;;;;7.64;89.17;90683.44;4967530;28;20030;-86
2021/08/02 04:30:55;;;;;;;2.40;1.60;;;;;;;7.69;90.07;90697.28;4984543;28;20497;-84
2021/08/02 04:33:29;;;;;;;3.10;1.50;;;;;;;7.74;89.69;90690.09;4983452;28;20058;-85
2021/08/02 04:36:04;;;;;;;4.68;2.25;;;;;;;7.81;89.87;90689.56;4983823;28;20018;-85
2021/08/02 04:38:37;;;;;;;3.85;1.67;;;;;;;7.82;90.07;90697.03;4983866;28;20021;-85
2021/08/02 04:41:13;;;;;;;1.83;1.40;;;;;;;7.87;89.43;90690.91;4982498;28;20026;-85
2021/08/02 04:43:44;;;;;;;1.95;1.40;;;;;;;7.87;89.37;90694.25;4998634;28;20030;-83
2021/08/02 04:46:20;;;;;;;2.58;1.23;;;;;;;7.86;89.31;90697.19;4999221;28;20117;-85
2021/08/02 04:48:53;;;;;;;2.47;1.40;;;;;;;7.87;89.39;90698.69;4982626;28;20056;-85
2021/08/02 04:51:28;;;;;;;2.70;1.70;;;;;;;7.93;89.00;90699.25;4967116;28;20030;-85
2021/08/02 04:54:09;;;;;;;3.03;1.55;;;;;;;7.93;88.56;90692.25;4982504;28;20026;-84
2021/08/02 04:56:43;;;;;;;4.35;1.52;;;;;;;7.86;88.75;90692.75;4999744;28;20449;-85
2021/08/02 04:59:15;;;;;;;2.20;1.50;;;;;;;7.82;88.38;90697.03;4967522;28;20108;-83
2021/08/02 05:01:55;;;;;;;2.38;1.60;;;;;;;7.90;88.01;90690.28;4998982;28;20030;-86
2021/08/02 05:04:27;;;;;;;2.28;1.60;;;;;;;7.96;88.56;90693.44;5017445;28;20109;-85
2021/08/02 05:07:02;;;;;;;3.40;1.58;;;;;;;8.00;88.16;90682.09;4999880;28;20037;-86
2021/08/02 05:09:33;;;;;;;2.30;1.40;;;;;;;8.01;88.09;90696.59;4984010;28;20054;-86
2021/08/02 05:12:04;;;;;;;2.17;1.40;;;;;;;8.06;88.28;90691.22;4999862;28;20041;-85
2021/08/02 05:14:40;;;;;;;5.75;1.65;;;;;;;8.13;87.31;90686.28;4984737;28;20026;-86
2021/08/02 05:17:15;;;;;;;3.65;1.80;;;;;;;8.10;88.13;90686.91;4984208;28;20038;-86
2021/08/02 05:19:55;;;;;;;5.72;2.25;;;;;;;8.10;88.37;90692.09;4988777;28;20410;-84
2021/08/02 05:22:29;;;;;;;2.85;2.13;;;;;;;8.14;88.39;90693.00;5013038;28;20022;-84
2021/08/02 05:25:07;;;;;;;5.95;2.97;;;;;;;8.28;88.10;90697.16;4984847;28;20022;-85
2021/08/02 05:27:39;;;;;;;3.47;2.53;;;;;;;8.63;87.42;90704.69;4984754;28;20021;-85
2021/08/02 05:30:15;;;;;;;3.92;2.72;;;;;;;8.65;87.70;90700.66;4983952;28;20261;-86
2021/08/02 05:32:53;;;;;;;4.95;3.45;;;;;;;8.73;87.82;90704.28;4983838;28;20089;-85
2021/08/02 05:35:31;;;;;;;4.65;2.85;;;;;;;8.72;88.13;90700.13;4984922;28;20033;-86
2021/08/02 05:38:03;;;;;;;5.20;3.05;;;;;;;8.81;88.16;90704.19;4985023;28;20104;-84
2021/08/02 05:40:50;;;;;;;4.05;2.30;;;;;;;8.97;87.53;90712.09;4973153;28;20054;-85
2021/08/02 05:43:24;;;;;;;6.78;2.85;;;;;;;9.12;87.53;90717.75;5001979;28;20060;-86
2021/08/02 05:45:56;;;;;;;3.85;2.22;;;;;;;9.29;87.16;90712.38;5010363;28;20006;-86
2021/08/02 05:48:32;;;;;;;5.30;2.63;;;;;;;9.32;87.47;90701.31;4985894;28;20022;-86
2021/08/02 05:51:05;;;;;;;5.32;2.70;;;;;;;9.33;88.01;90702.84;4977902;28;20080;-86
2021/08/02 05:53:39;;;;;;;4.32;1.90;;;;;;;9.51;87.47;90711.94;5015254;28;20042;-86
2021/08/02 05:56:11;;;;;;;3.55;2.15;;;;;;;9.71;87.47;90722.56;4967920;28;20106;-83
2021/08/02 05:58:40;;;;;;;2.30;2.00;;;;;;;9.79;87.69;90719.09;4978321;28;20030;-86
2021/08/02 06:01:14;;;;;;;2.60;1.95;;;;;;;9.81;88.58;90716.91;4960849;28;20493;-85
2021/08/02 06:03:49;;;;;;;2.47;2.00;;;;;;;10.06;87.98;90718.38;4977913;28;20076;-86
2021/08/02 06:06:21;;;;;;;4.35;2.03;;;;;;;10.10;88.33;90717.72;4961922;28;20403;-86
2021/08/02 06:08:53;;;;;;;3.58;1.90;;;;;;;10.20;87.43;90717.28;4961924;28;20137;-84
2021/08/02 06:11:25;;;;;;;3.97;1.80;;;;;;;10.23;87.18;90717.38;4962346;28;20057;-84
2021/08/02 06:13:58;;;;;;;2.78;1.90;;;;;;;10.39;87.22;90734.94;4962624;28;20462;-86
2021/08/02 06:16:34;;;;;;;2.80;2.13;;;;;;;10.43;87.53;90726.16;4978564;28;20109;-84
2021/08/02 06:19:09;;;;;;;3.13;2.20;;;;;;;10.61;87.85;90726.63;4979384;28;20022;-86
2021/08/02 06:21:45;;;;;;;3.90;2.40;;;;;;;10.63;87.32;90728.88;4962467;28;20553;-86
2021/08/02 06:24:24;;;;;;;2.60;1.92;;;;;;;10.82;87.05;90741.31;4963920;28;20482;-86
2021/08/02 06:26:53;;;;;;;2.50;1.90;;;;;;;10.89;85.90;90731.81;5012078;28;20029;-84
2021/08/02 06:29:27;;;;;;;2.90;1.85;;;;;;;10.91;86.77;90737.44;4981218;28;20490;-86
2021/08/02 06:32:00;;;;;;;3.33;2.10;;;;;;;11.06;86.37;90745.63;4982590;28;20104;-86
2021/08/02 06:34:38;;;;;;;4.63;1.90;;;;;;;11.15;85.53;90733.94;5015972;28;20516;-84
2021/08/02 06:37:14;;;;;;;3.97;2.00;;;;;;;11.32;84.50;90735.50;4982862;28;20310;-85
2021/08/02 06:39:45;;;;;;;2.30;1.70;;;;;;;11.21;85.21;90730.00;4997225;28;20109;-85
2021/08/02 06:42:22;;;;;;;3.13;1.90;;;;;;;11.32;84.17;90743.31;4982587;28;20031;-85
2021/08/02 06:44:58;;;;;;;3.35;2.08;;;;;;;11.35;84.23;90737.44;4982556;28;20034;-86
2021/08/02 06:47:35;;;;;;;2.38;1.70;;;;;;;11.58;83.92;90745.41;4983089;28;20025;-86
2021/08/02 06:50:11;;;;;;;3.65;2.17;;;;;;;11.62;82.31;90743.63;4982695;28;20030;-86
2021/08/02 06:52:42;;;;;;;4.07;2.10;;;;;;;11.75;83.02;90748.78;4982980;28;20026;-86
2021/08/02 06:55:17;;;;;;;2.60;1.58;;;;;;;11.81;82.48;90731.78;4985610;28;20053;-83
2021/08/02 06:57:57;;;;;;;2.63;1.80;;;;;;;11.87;82.13;90739.03;5009949;28;20021;-84
2021/08/02 07:00:28;;;;;;;3.33;1.60;;;;;;;12.10;80.82;90744.38;5003438;28;20030;-84
2021/08/02 07:03:06;;;;;;;2.25;1.60;;;;;;;12.19;79.16;90742.34;4979513;28;20392;-84
2021/08/02 07:05:41;;;;;;;2.63;1.88;;;;;;;12.11;78.16;90745.13;4963456;28;20486;-85
2021/08/02 07:08:20;;;;;;;3.78;2.00;;;;;;;12.04;78.44;90747.59;5075104;23;20057;-88
2021/08/02 07:10:52;;;;;;;5.78;1.73;;;;;;;12.18;77.79;90750.50;5005012;28;20017;-85
2021/08/02 07:13:27;;;;;;;3.08;1.90;;;;;;;12.23;80.31;90747.63;5020718;28;20029;-85
2021/08/02 07:16:00;;;;;;;3.80;1.80;;;;;;;12.36;80.57;90754.25;5007033;28;20025;-85
2021/08/02 07:18:52;;;;;;;2.92;1.60;;;;;;;12.38;80.08;90748.69;5005376;28;20118;-85
2021/08/02 07:21:21;;;;;;;2.17;1.85;;;;;;;12.47;78.41;90749.22;5002432;28;20406;-85
2021/08/02 07:23:56;;;;;;;2.83;2.05;;;;;;;12.56;79.95;90751.66;4989904;28;20046;-85
2021/08/02 07:26:34;;;;;;;2.38;1.67;;;;;;;12.70;78.91;90751.94;4990706;28;20039;-86
2021/08/02 07:29:15;;;;;;;4.28;1.80;;;;;;;12.82;77.13;90757.03;4992761;28;20022;-85
2021/08/02 07:31:48;;;;;;;2.50;1.70;;;;;;;12.86;75.97;90760.47;4993447;28;20030;-85
2021/08/02 07:34:28;;;;;;;3.10;1.85;;;;;;;12.95;72.74;90760.25;4991343;28;20033;-85
2021/08/02 07:37:10;;;;;;;3.42;1.80;;;;;;;12.98;74.40;90751.72;5002607;28;20026;-85
2021/08/02 07:39:44;;;;;;;3.13;1.50;;;;;;;13.00;75.51;90769.69;4997868;28;20092;-85
2021/08/02 07:42:20;;;;;;;3.30;1.90;;;;;;;13.17;75.87;90756.16;4993621;28;20100;-85
2021/08/02 07:44:57;;;;;;;2.90;1.67;;;;;;;13.30;75.53;90762.78;4992274;28;20022;-83
2021/08/02 07:47:35;;;;;;;2.65;1.70;;;;;;;13.22;74.99;90763.75;4989924;28;20443;-85
2021/08/02 07:50:12;;;;;;;4.68;1.80;;;;;;;13.35;75.01;90770.34;5006419;28;20034;-85
2021/08/02 07:52:51;;;;;;;2.50;1.45;;;;;;;13.39;73.54;90771.19;4972371;28;20026;-85
2021/08/02 07:55:23;;;;;;;4.20;1.60;;;;;;;13.37;73.80;90772.63;4991231;28;20094;-85
2021/08/02 07:58:00;;;;;;;2.88;1.70;;;;;;;13.41;72.74;90772.69;4992231;28;20030;-86
2021/08/02 08:00:38;;;;;;;4.20;2.28;;;;;;;13.28;74.96;90770.22;4973103;28;20033;-85
2021/08/02 08:03:19;;;;;;;3.15;1.70;;;;;;;13.49;73.50;90766.47;4977073;28;20093;-84
2021/08/02 08:05:55;;;;;;;2.08;1.58;;;;;;;13.46;73.25;90775.75;4989894;28;20494;-85
2021/08/02 08:08:32;;;;;;;2.83;1.70;;;;;;;13.34;72.44;90776.69;4986811;28;20042;-85
2021/08/02 08:11:06;;;;;;;4.10;1.70;;;;;;;13.16;72.53;90765.13;4990769;28;20022;-85
2021/08/02 08:13:47;;;;;;;3.10;1.75;;;;;;;13.32;73.35;90772.91;4992145;28;20038;-85
2021/08/02 08:16:23;;;;;;;4.03;1.85;;;;;;;13.18;73.27;90767.38;5001482;28;20041;-85
2021/08/02 08:19:02;;;;;;;3.53;1.48;;;;;;;13.26;71.60;90769.06;5010802;28;20026;-85
2021/08/02 08:21:40;;;;;;;2.53;1.73;;;;;;;13.10;72.69;90776.97;4992425;28;20442;-85
2021/08/02 08:24:18;;;;;;;4.38;1.83;;;;;;;13.15;72.46;90768.84;5006955;28;20056;-85
2021/08/02 08:26:57;;;;;;;2.17;1.63;;;;;;;13.20;72.88;90776.41;5005461;28;20030;-85
2021/08/02 08:29:30;;;;;;;3.13;1.50;;;;;;;13.21;72.55;90777.91;5003376;28;20030;-85
2021/08/02 08:32:07;;;;;;;2.88;1.80;;;;;;;13.06;71.98;90782.13;4971529;28;20034;-86
2021/08/02 08:34:41;;;;;;;3.47;1.40;;;;;;;13.10;71.93;90779.59;5007016;28;20054;-85
2021/08/02 08:37:19;;;;;;;2.92;1.35;;;;;;;13.23;70.56;90780.94;5006353;28;20094;-86
2021/08/02 08:39:55;;;;;;;2.53;1.38;;;;;;;13.18;72.37;90783.88;5012906;28;20026;-85
2021/08/02 08:42:35;;;;;;;2.72;1.40;;;;;;;13.28;72.04;90777.31;4993200;28;20030;-86
2021/08/02 08:45:14;;;;;;;3.58;1.60;;;;;;;13.35;69.51;90782.66;4993871;28;20030;-85
2021/08/02 08:47:51;;;;;;;1.75;1.35;;;;;;;13.50;70.08;90773.97;5009844;28;20022;-84
2021/08/02 08:50:28;;;;;;;2.10;1.30;;;;;;;13.46;70.37;90777.63;4993147;28;20101;-85
2021/08/02 08:53:05;;;;;;;2.53;1.50;;;;;;;13.53;72.44;90781.13;4972632;28;20033;-86
2021/08/02 08:55:43;;;;;;;3.25;1.70;;;;;;;13.60;70.14;90780.47;4966613;28;20041;-86
2021/08/02 08:58:18;;;;;;;1.77;1.38;;;;;;;13.52;72.37;90781.47;4979260;28;20042;-85
2021/08/02 09:00:48;;;;;;;2.55;1.33;;;;;;;13.63;72.05;90779.78;4994082;28;20022;-85
2021/08/02 09:03:23;;;;;;;1.98;1.23;;;;;;;13.62;71.06;90771.19;5006357;28;20030;-86
2021/08/02 09:06:08;;;;;;;1.73;1.30;;;;;;;13.79;70.00;90783.06;4974953;28;20026;-85
2021/08/02 09:08:50;;;;;;;2.50;1.35;;;;;;;13.82;70.15;90774.50;5002572;28;20217;-86
2021/08/02 09:11:28;;;;;;;2.25;1.27;;;;;;;13.81;69.14;90770.34;4978202;28;20109;-86
2021/08/02 09:14:13;;;;;;;2.95;1.30;;;;;;;13.81;70.16;90777.44;4978633;28;20026;-86
2021/08/02 09:16:47;;;;;;;;;;;;;;;13.92;69.80;90788.09;4976784;28;20109;-86
2021/08/02 09:19:20;;;;;;;3.47;1.23;;;;;;;13.73;72.62;90786.31;4975380;28;19960;-86
2021/08/02 09:21:56;;;;;;;3.83;1.48;;;;;;;13.91;70.14;90783.97;4975885;28;20026;-85
2021/08/02 09:24:34;;;;;;;2.05;1.27;;;;;;;13.79;69.23;90788.28;4976655;28;20125;-86
2021/08/02 09:27:17;;;;;;;1.90;1.10;;;;;;;13.76;71.16;90785.63;4977186;28;20026;-86
2021/08/02 09:29:45;;;;;;;2.10;1.35;;;;;;;13.95;70.17;90792.63;4959436;28;20042;-85
2021/08/02 09:32:21;;;;;;;2.30;1.25;;;;;;;13.88;71.98;90790.66;4959477;28;20113;-86
2021/08/02 09:34:58;;;;;;;3.50;1.38;;;;;;;14.11;71.73;90793.28;4976395;28;20474;-86
2021/08/02 09:37:36;;;;;;;2.22;1.40;;;;;;;14.24;69.13;90793.81;4976445;28;20507;-86
2021/08/02 09:40:15;;;;;;;4.90;1.77;;;;;;;14.28;70.64;90799.88;4992392;28;20049;-86
2021/08/02 09:42:58;;;;;;;2.15;1.40;;;;;;;14.37;68.09;90797.00;4976093;28;20514;-86
2021/08/02 09:45:40;;;;;;;3.45;1.48;;;;;;;14.44;67.42;90792.59;4976096;28;20030;-86
2021/08/02 09:48:19;;;;;;;3.63;1.67;;;;;;;14.63;66.87;90794.41;4977210;28;20022;-88
2021/08/02 09:50:56;;;;;;;2.42;1.20;;;;;;;14.53;66.55;90787.16;4976282;28;20057;-86
2021/08/02 09:53:43;;;;;;;2.63;2.08;;;;;;;14.68;65.37;90791.47;4975279;28;20034;-86
2021/08/02 09:56:24;;;;;;;29.83;2.65;;;;;;;14.90;65.32;90797.72;4991054;28;20019;-86
2021/08/02 09:59:03;;;;;;;2.55;1.17;;;;;;;14.86;64.86;90790.94;4975883;28;20034;-86
2021/08/02 10:01:43;;;;;;;1.40;1.10;;;;;;;14.82;64.93;90783.78;4975451;28;20022;-86
2021/08/02 10:04:20;;;;;;;2.33;1.20;;;;;;;14.98;63.13;90777.56;4991105;28;20442;-86
2021/08/02 10:06:56;;;;;;;1.83;1.00;;;;;;;15.20;62.99;90789.84;4975752;28;20034;-86
2021/08/02 10:09:36;;;;;;;2.28;1.20;;;;;;;14.91;64.07;90783.50;4960159;28;20057;-86
2021/08/02 10:12:15;;;;;;;2.35;1.20;;;;;;;15.18;63.20;90778.94;4990827;28;20491;-85
2021/08/02 10:14:53;;;;;;;3.00;1.00;;;;;;;15.20;62.74;90783.84;4960313;28;20427;-87
2021/08/02 10:17:27;;;;;;;1.90;0.95;;;;;;;15.36;61.31;90776.47;4975242;28;20542;-86
2021/08/02 10:20:04;;;;;;;2.60;1.20;;;;;;;15.54;61.72;90785.28;4959023;28;20449;-87
2021/08/02 10:22:53;;;;;;;1.40;1.02;;;;;;;15.66;60.10;90784.31;4975821;28;20026;-86
2021/08/02 10:25:44;;;;;;;3.40;1.25;;;;;;;15.64;61.26;90780.50;4987044;28;20113;-87
2021/08/02 10:28:21;;;;;;;1.88;1.02;;;;;;;15.75;60.88;90787.38;4956033;28;20391;-86
2021/08/02 10:31:13;;;;;;;1.90;1.00;;;;;;;15.85;60.31;90779.97;4955591;28;20019;-86
2021/08/02 10:33:50;;;;;;;1.90;1.20;;;;;;;15.69;62.22;90788.09;4940362;28;20026;-85
2021/08/02 10:36:28;;;;;;;3.30;1.17;;;;;;;15.50;58.57;90781.13;4956032;28;20022;-86
2021/08/02 10:39:06;;;;;;;3.97;1.40;;;;;;;15.59;58.48;90778.22;4956548;28;20399;-86
2021/08/02 10:41:43;;;;;;;2.05;1.20;;;;;;;15.67;58.36;90782.44;4971860;28;20023;-86
2021/08/02 10:44:21;;;;;;;2.33;1.00;;;;;;;15.90;59.14;90777.00;4972450;28;20023;-86
2021/08/02 10:47:01;;;;;;;1.40;0.80;;;;;;;16.05;58.00;90776.00;4955488;28;20023;-86
2021/08/02 10:49:36;;;;;;;3.40;1.30;;;;;;;16.07;59.19;90765.88;4955146;28;20053;-86
2021/08/02 10:52:18;;;;;;;2.38;0.80;;;;;;;16.04;59.40;90769.22;4972330;28;20031;-86
2021/08/02 10:54:54;;;;;;;3.03;1.00;;;;;;;16.06;59.31;90776.75;4971397;28;20022;-86
2021/08/02 10:57:33;;;;;;;1.50;1.00;;;;;;;16.24;60.13;90773.13;4971168;28;20056;-86
2021/08/02 11:00:18;;;;;;;2.30;0.90;;;;;;;16.07;59.38;90778.25;4975154;28;20027;-86
2021/08/02 11:03:01;;;;;;;2.45;1.00;;;;;;;16.30;57.30;90768.28;4961129;28;20383;-86
2021/08/02 11:05:39;;;;;;;1.95;0.98;;;;;;;16.34;58.02;90774.31;4991279;28;20026;-86
2021/08/02 11:08:16;;;;;;;1.83;1.10;;;;;;;16.29;56.74;90763.38;4961070;28;20035;-87
2021/08/02 11:10:42;;;;;;;2.75;1.00;;;;;;;16.43;58.68;90766.09;4991614;28;20090;-86
2021/08/02 11:13:27;;;;;;;1.58;1.00;;;;;;;16.44;57.68;90765.75;4959630;28;20062;-86
2021/08/02 11:16:03;;;;;;;1.50;0.98;;;;;;;16.69;56.54;90758.00;4961191;28;20403;-86
2021/08/02 11:18:46;;;;;;;1.35;0.93;;;;;;;16.68;56.71;90767.00;4960010;28;20035;-86
2021/08/02 11:21:28;;;;;;;2.67;1.00;;;;;;;16.47;56.76;90766.91;4960127;28;20030;-86
2021/08/02 11:24:08;;;;;;;1.58;0.88;;;;;;;16.76;56.97;90761.81;4944021;28;20078;-86
2021/08/02 11:27:01;;;;;;;2.05;1.00;;;;;;;16.51;55.63;90759.03;4958497;28;20113;-86
2021/08/02 11:29:31;;;;;;;2.38;1.10;;;;;;;16.39;55.86;90762.69;4993843;28;20034;-88
2021/08/02 11:32:12;;;;;;;1.17;1.08;;;;;;;16.46;54.96;90754.84;4962323;28;20030;-86
2021/08/02 11:34:49;;;;;;;1.63;1.20;;;;;;;16.65;57.34;90759.09;4979076;28;20026;-86
2021/08/02 11:37:33;;;;;;;4.20;1.33;;;;;;;16.63;56.13;90759.44;4978591;28;20104;-86
2021/08/02 11:40:12;;;;;;;2.63;1.20;;;;;;;16.55;56.95;90760.56;4993801;28;20487;-86
2021/08/02 11:42:50;;;;;;;2.05;1.05;;;;;;;16.49;54.07;90754.88;4962298;28;20430;-87
2021/08/02 11:45:26;;;;;;;2.15;0.98;;;;;;;16.55;56.48;90754.53;4993903;28;20022;-87
2021/08/02 11:48:02;;;;;;;1.40;0.90;;;;;;;16.38;56.46;90761.19;4978760;28;20018;-86
2021/08/02 11:50:38;;;;;;;2.88;1.10;;;;;;;16.52;56.51;90753.38;4977449;28;20065;-86
2021/08/02 11:53:17;;;;;;;1.10;0.80;;;;;;;16.76;53.04;90756.56;4993818;28;20026;-86
2021/08/02 11:56:04;;;;;;;1.50;1.00;;;;;;;16.77;55.78;90758.06;4993479;28;20138;-86
2021/08/02 11:58:52;;;;;;;2.35;1.00;;;;;;;16.88;55.38;90764.09;4978144;28;20030;-86
2021/08/02 12:01:28;;;;;;;2.85;1.00;;;;;;;16.87;56.48;90758.09;4993343;28;20027;-87
2021/08/02 12:04:05;;;;;;;1.92;1.08;;;;;;;17.34;55.74;90764.28;4978175;28;20029;-87
2021/08/02 12:06:58;;;;;;;1.83;0.90;;;;;;;17.43;56.18;90764.69;4961780;28;20049;-86
2021/08/02 12:09:44;;;;;;;1.27;0.90;;;;;;;17.52;55.21;90764.31;4993288;28;20026;-86
2021/08/02 12:12:22;;;;;;;2.55;0.98;;;;;;;17.11;54.25;90761.97;4994507;28;20027;-86
2021/08/02 12:15:02;;;;;;;1.50;0.98;;;;;;;17.11;54.48;90761.97;4977270;28;20026;-86
2021/08/02 12:17:50;;;;;;;1.13;0.82;;;;;;;17.01;55.93;90760.03;4993187;28;20034;-87
2021/08/02 12:20:38;;;;;;;3.15;1.00;;;;;;;17.04;58.42;90766.44;4979261;28;20117;-86
2021/08/02 12:23:23;;;;;;;1.80;0.82;;;;;;;16.93;54.95;90763.78;4993362;28;20014;-86